Terminal Aerodrome Forecast
Issued by NWS

Home | Current Version | Previous Version | Text Only | Print | Product List | Glossary On
Versions: 1 2 3 4 5 6 7 8 9 10 11 12 13 14
642
FTUS42 KMLB 300529
TAFSFB
TAF
KSFB 300529Z 3006/3106 VRB02KT P6SM SCT080 BKN100
     FM301400 VRB04KT P6SM SCT020 SCT050
     FM302100 06008KT P6SM VCTS SCT050CB BKN250
     FM310000 14006KT P6SM FEW030 BKN120=

USA.gov is the U.S. government's official web portal to all federal, state and local government web resources and services.